Terminal Aerodrome Forecast
Issued by NWS

Home | Current Version | Previous Version | Text Only | Print | Product List | Glossary On
Versions: 1 2 3 4 5 6 7 8 9 10 11 12
000
FTUS42 KMLB 211144
TAFSUA
TAF
KSUA 211144Z 2112/2212 10009KT P6SM FEW025 BKN250
     FM211400 10015G24KT P6SM VCSH SCT025 BKN040
     FM220000 10013G21KT P6SM VCSH SCT020 BKN035
     FM220600 11008KT P6SM VCSH BKN030=

USA.gov is the U.S. government's official web portal to all federal, state and local government web resources and services.